Gypsum, OH

1:14 AM EST on February 27, 2017 (GMT -0500)
Keller

Weather History for KPCW - January, 2014

Change the Weather History Date:

Saturday, January 4, 2014

  Actual Average (KTTF) Record (KTTF)
Temperature  
Mean Temperature 23 °F -  
Max Temperature 34 °F 33 °F 59 °F (1950)
Min Temperature 12 °F 18 °F -8 °F (1981)
Degree Days  
Heating Degree Days 42    
Moisture  
Dew Point 13 °F    
Average Humidity 59    
Maximum Humidity 65    
Minimum Humidity 50    
Precipitation  
Precipitation 0.00 in - - ()
Sea Level Pressure  
Sea Level Pressure 30.04 in    
Wind  
Wind Speed 14 mph (SSW)    
Max Wind Speed 20 mph    
Max Gust Speed 28 mph    
Visibility 10 miles    
Events Rain    
Averages and records for this station are not official NWS values.
T = Trace of Precipitation, MM = Missing Value Source: NWS Daily Summary

Daily Weather History Graph

Daily Weather History Graph

Search for Another Location

Airport or City:

Trip Planner

Search our weather history database for the weather conditions in past years. The results will help you decide how hot, cold, wet, or windy it might be!

Date:

Astronomy

Jan. 04, 2014 Rise Set
Actual Time 7:58 AM EST 5:15 PM EST
Civil Twilight 7:26 AM EST 5:46 PM EST
Nautical Twilight 6:52 AM EST 6:20 PM EST
Astronomical Twilight 6:18 AM EST 6:54 PM EST
Moon 10:00 AM EST (1/4) 9:36 PM EST (1/4)
Length of Visible Light 10h 19m
Length of Day
9h 16m
Waxing Crescent, 15% of the Moon is Illuminated
Jan 4
Waxing Crescent
Jan 7
First Quarter
Jan 15
Full
Jan 24
Last Quarter
Jan 30
New

Hourly Weather History & Observations

Time (EST) Temp. Windchill Dew Point Humidity Pressure Visibility Wind Dir Wind Speed Gust Speed Precip Events Conditions
12:14 AM 12.2 °F -3.1 °F 1.4 °F 62% 30.21 in 10.0 mi South 13.8 mph - N/A   Clear
12:34 AM 12.2 °F -3.1 °F 1.4 °F 62% 30.20 in 10.0 mi South 13.8 mph - N/A   Clear
12:54 AM 12.0 °F -3.4 °F 1.0 °F 61% 30.19 in 10.0 mi South 13.8 mph - N/A   Clear
1:14 AM 12.2 °F -2.5 °F 1.4 °F 62% 30.18 in 10.0 mi South 12.7 mph - N/A   Clear
1:34 AM 12.2 °F -4.3 °F 1.4 °F 62% 30.17 in 10.0 mi South 16.1 mph - N/A   Clear
1:54 AM 13.1 °F -2.6 °F 2.1 °F 62% 30.16 in 10.0 mi South 15.0 mph - N/A   Clear
2:14 AM 14.0 °F -0.8 °F 3.2 °F 62% 30.15 in 10.0 mi South 13.8 mph - N/A   Clear
2:34 AM 14.0 °F -1.4 °F 3.2 °F 62% 30.15 in 10.0 mi South 15.0 mph - N/A   Clear
2:54 AM 15.1 °F -0.1 °F 4.1 °F 62% 30.14 in 10.0 mi South 15.0 mph - N/A   Clear
3:14 AM 15.8 °F 0.9 °F 3.2 °F 58% 30.14 in 10.0 mi South 15.0 mph - N/A   Clear
3:35 AM 15.8 °F 0.3 °F 3.2 °F 58% 30.13 in 10.0 mi South 16.1 mph - N/A   Clear
3:54 AM 15.1 °F -1.6 °F 4.1 °F 62% 30.10 in 10.0 mi South 18.4 mph - N/A   Clear
4:14 AM 15.8 °F 1.4 °F 3.2 °F 58% 30.11 in 10.0 mi South 13.8 mph - N/A   Clear
4:34 AM 15.8 °F 0.9 °F 5.0 °F 62% 30.10 in 10.0 mi South 15.0 mph - N/A   Clear
4:54 AM 16.2 °F 0.3 °F 5.0 °F 62% 30.09 in 10.0 mi South 17.3 mph - N/A   Clear
5:14 AM 17.6 °F 3.2 °F 5.0 °F 58% 30.08 in 10.0 mi South 15.0 mph - N/A   Clear
5:34 AM 17.6 °F 2.7 °F 6.8 °F 63% 30.07 in 10.0 mi South 16.1 mph - N/A   Clear
5:54 AM 17.1 °F 2.5 °F 6.1 °F 62% 30.06 in 10.0 mi South 15.0 mph - N/A   Clear
6:15 AM 17.6 °F 2.2 °F 6.8 °F 63% 30.05 in 10.0 mi SSW 17.3 mph - N/A   Clear
6:34 AM 17.6 °F 2.7 °F 6.8 °F 63% 30.04 in 10.0 mi South 16.1 mph - N/A   Clear
6:54 AM 18.1 °F 3.9 °F 7.2 °F 62% 30.05 in 10.0 mi SSW 15.0 mph - N/A   Clear
7:14 AM 19.4 °F 5.0 °F 6.8 °F 58% 30.05 in 10.0 mi South 16.1 mph - N/A   Clear
7:34 AM 19.4 °F 4.5 °F 6.8 °F 58% 30.04 in 10.0 mi SSW 17.3 mph - N/A   Clear
7:55 AM 21.0 °F 6.6 °F 7.2 °F 55% 30.03 in 10.0 mi South 17.3 mph - N/A   Clear
8:14 AM 21.2 °F 7.3 °F 6.8 °F 54% 30.03 in 10.0 mi SSW 16.1 mph - N/A   Clear
8:34 AM 23.0 °F 8.7 °F 6.8 °F 50% 30.03 in 10.0 mi South 18.4 mph - N/A   Clear
8:54 AM 24.1 °F 10.1 °F 8.1 °F 51% 30.02 in 10.0 mi SSW 18.4 mph - N/A   Clear
9:14 AM 24.8 °F 11.9 °F 8.6 °F 50% 30.02 in 10.0 mi SSW 16.1 mph - N/A   Clear
9:35 AM 24.8 °F 11.9 °F 8.6 °F 50% 30.03 in 10.0 mi SSW 16.1 mph - N/A   Clear
9:54 AM 25.2 °F 11.2 °F 9.1 °F 51% 30.02 in 10.0 mi SSW 19.6 mph - N/A   Clear
10:14 AM 26.6 °F 13.4 °F 10.4 °F 51% 30.01 in 10.0 mi SSW 18.4 mph - N/A   Clear
10:34 AM 24.8 °F 10.7 °F 10.4 °F 54% 30.01 in 10.0 mi SSW 19.6 mph 27.6 mph N/A   Clear
10:54 AM 26.1 °F 13.1 °F 11.1 °F 53% 30.01 in 10.0 mi SSW 17.3 mph - N/A   Clear
11:14 AM 26.6 °F 15.2 °F 12.2 °F 55% 30.02 in 10.0 mi SSW 13.8 mph - N/A   Clear
11:34 AM 26.6 °F 13.8 °F 12.2 °F 55% 30.01 in 10.0 mi SSW 17.3 mph - N/A   Clear
11:54 AM 27.1 °F 15.4 °F 13.1 °F 56% 29.99 in 10.0 mi SSW 15.0 mph - N/A   Clear
12:15 PM 26.6 °F 13.8 °F 12.2 °F 55% 29.99 in 10.0 mi SSW 17.3 mph - N/A   Clear
12:34 PM 28.4 °F 18.0 °F 14.0 °F 55% 30.00 in 10.0 mi SSW 12.7 mph - N/A   Clear
12:54 PM 28.0 °F 17.5 °F 14.0 °F 56% 29.99 in 10.0 mi SSW 12.7 mph - N/A   Clear
1:14 PM 28.4 °F 17.0 °F 15.8 °F 59% 29.97 in 10.0 mi SSW 15.0 mph - N/A   Clear
1:34 PM 30.2 °F 20.2 °F 15.8 °F 55% 29.97 in 10.0 mi SSW 12.7 mph - N/A   Clear
1:54 PM 31.1 °F 20.9 °F 16.2 °F 54% 29.97 in 10.0 mi SSW 13.8 mph - N/A   Clear
2:14 PM 32.0 °F 22.1 °F 17.6 °F 55% 29.96 in 10.0 mi SSW 13.8 mph - N/A   Clear
2:34 PM 32.0 °F 22.1 °F 17.6 °F 55% 29.96 in 10.0 mi SSW 13.8 mph - N/A   Clear
2:54 PM 32.9 °F 23.7 °F 18.1 °F 55% 29.96 in 10.0 mi SSW 12.7 mph - N/A   Clear
3:14 PM 33.8 °F 24.8 °F 17.6 °F 52% 29.97 in 10.0 mi SSW 12.7 mph - N/A   Partly Cloudy
3:34 PM 33.8 °F 25.8 °F 17.6 °F 52% 29.98 in 10.0 mi SSW 10.4 mph - N/A   Clear
3:54 PM 34.0 °F 24.6 °F 18.1 °F 52% 29.99 in 10.0 mi SSW 13.8 mph - N/A   Clear
4:14 PM 33.8 °F 24.3 °F 17.6 °F 52% 29.98 in 10.0 mi SSW 13.8 mph - N/A   Clear
4:34 PM 32.0 °F 23.6 °F 19.4 °F 60% 29.99 in 10.0 mi SSW 10.4 mph - N/A   Mostly Cloudy
4:54 PM 32.0 °F 24.2 °F 18.1 °F 57% 30.01 in 10.0 mi SSW 9.2 mph - N/A   Overcast
5:15 PM 32.0 °F 23.0 °F 19.4 °F 60% 30.01 in 10.0 mi SSW 11.5 mph - N/A   Mostly Cloudy
5:34 PM 32.0 °F 23.6 °F 19.4 °F 60% 30.00 in 10.0 mi SSW 10.4 mph - N/A   Mostly Cloudy
5:54 PM 32.0 °F 24.2 °F 20.1 °F 62% 30.00 in 10.0 mi SSW 9.2 mph - N/A   Overcast
6:15 PM 32.0 °F 24.2 °F 19.4 °F 60% 30.01 in 10.0 mi SSW 9.2 mph - N/A   Overcast
6:34 PM 32.0 °F 23.6 °F 19.4 °F 60% 30.01 in 10.0 mi SSW 10.4 mph - N/A   Mostly Cloudy
6:55 PM 32.0 °F 24.2 °F 19.4 °F 60% 30.01 in 10.0 mi SSW 9.2 mph - N/A   Mostly Cloudy
7:14 PM 32.0 °F 24.8 °F 21.2 °F 64% 30.01 in 10.0 mi SSW 8.1 mph - N/A   Scattered Clouds
7:34 PM 32.0 °F 26.4 °F 21.2 °F 64% 30.03 in 10.0 mi SSW 5.8 mph - N/A   Mostly Cloudy
7:54 PM 32.9 °F 26.7 °F 21.0 °F 62% 30.04 in 10.0 mi SW 6.9 mph - N/A Rain Light Rain
8:14 PM 33.8 °F 27.0 °F 21.2 °F 60% 30.04 in 10.0 mi SW 8.1 mph - N/A   Overcast
8:34 PM 33.8 °F 27.0 °F 21.2 °F 60% 30.03 in 10.0 mi SSW 8.1 mph - N/A Rain Light Rain
8:54 PM 34.0 °F 28.0 °F 22.1 °F 62% 30.02 in 10.0 mi SSW 6.9 mph - N/A   Overcast
9:14 PM 33.8 °F 27.7 °F 23.0 °F 65% 30.03 in 10.0 mi SSW 6.9 mph - N/A   Overcast
9:34 PM 33.8 °F 27.7 °F 21.2 °F 60% 30.04 in 10.0 mi SSW 6.9 mph - N/A Rain Light Rain
9:54 PM 33.8 °F 27.7 °F 21.2 °F 60% 30.04 in 10.0 mi SSW 6.9 mph - N/A   Overcast
10:14 PM 33.8 °F 27.7 °F 23.0 °F 65% 30.03 in 10.0 mi SSW 6.9 mph - N/A Rain Light Rain
10:34 PM 33.8 °F 27.7 °F 21.2 °F 60% 30.03 in 10.0 mi SSW 6.9 mph - N/A   Overcast
10:54 PM 33.8 °F 27.7 °F 23.0 °F 65% 30.02 in 10.0 mi SSW 6.9 mph - N/A Rain Light Rain
11:14 PM 33.8 °F 28.6 °F 23.0 °F 65% 30.03 in 10.0 mi SSW 5.8 mph - N/A   Overcast
11:34 PM 33.8 °F 28.6 °F 23.0 °F 65% 30.03 in 10.0 mi SSW 5.8 mph - N/A   Overcast
11:54 PM 34.0 °F 28.8 °F 23.0 °F 64% 30.03 in 10.0 mi SSW 5.8 mph - N/A   Overcast